createdAt,value
2023-04-18T00:00:59.156Z,92857.00
2023-04-18T00:01:59.249Z,92859.00
2023-04-18T00:03:00.900Z,92859.00
2023-04-18T00:03:59.499Z,92857.00
2023-04-18T00:04:59.394Z,92859.00
2023-04-18T00:05:59.348Z,92857.00
2023-04-18T00:06:59.299Z,92857.00
2023-04-18T00:07:59.313Z,92857.00
2023-04-18T00:08:59.374Z,92857.00
2023-04-18T00:09:59.346Z,92855.00
2023-04-18T00:10:59.358Z,92857.00
2023-04-18T00:11:59.362Z,92855.00
2023-04-18T00:12:59.378Z,92855.00
2023-04-18T00:13:59.399Z,92855.00
2023-04-18T00:14:59.401Z,92855.00
2023-04-18T00:15:59.420Z,92851.00
2023-04-18T00:16:59.477Z,92851.00
2023-04-18T00:17:59.498Z,92851.00
2023-04-18T00:18:59.461Z,92851.00
2023-04-18T00:19:59.473Z,92851.00
2023-04-18T00:20:59.486Z,92851.00
2023-04-18T00:21:59.494Z,92851.00
2023-04-18T00:22:59.504Z,92851.00
2023-04-18T00:23:59.600Z,92853.00
2023-04-18T00:24:59.726Z,92851.00
2023-04-18T00:25:59.763Z,92855.00
2023-04-18T00:26:59.831Z,92851.00
2023-04-18T00:28:00.887Z,92853.00
2023-04-18T00:29:00.002Z,92851.00
2023-04-18T00:30:00.140Z,92851.00
2023-04-18T00:31:00.170Z,92853.00
2023-04-18T00:32:00.241Z,92849.00
2023-04-18T00:33:00.419Z,92851.00
2023-04-18T00:34:00.398Z,92851.00
2023-04-18T00:35:00.903Z,92851.00
2023-04-18T00:36:00.572Z,92853.00
2023-04-18T00:37:00.639Z,92853.00
2023-04-18T00:38:00.707Z,92853.00
2023-04-18T00:39:00.808Z,92851.00
2023-04-18T00:40:00.886Z,92851.00
2023-04-18T00:41:00.957Z,92851.00
2023-04-18T00:42:01.034Z,92851.00
2023-04-18T00:43:01.119Z,92853.00
2023-04-18T00:44:01.200Z,92851.00
2023-04-18T00:45:01.285Z,92851.00
2023-04-18T00:46:01.425Z,92853.00
2023-04-18T00:47:01.440Z,92855.00
2023-04-18T00:48:01.594Z,92853.00
2023-04-18T00:49:01.908Z,92853.00
2023-04-18T00:50:01.712Z,92853.00
2023-04-18T00:51:01.756Z,92853.00
2023-04-18T00:52:01.852Z,92851.00
2023-04-18T00:53:01.918Z,92851.00
2023-04-18T00:54:02.066Z,92851.00
2023-04-18T00:55:02.093Z,92851.00
2023-04-18T00:56:02.131Z,92849.00
2023-04-18T00:57:02.280Z,92851.00
2023-04-18T00:58:02.284Z,92849.00
2023-04-18T00:59:02.338Z,92849.00
2023-04-18T01:00:02.504Z,92851.00
2023-04-18T01:01:02.472Z,92851.00
2023-04-18T01:02:02.640Z,92851.00
2023-04-18T01:03:02.920Z,92849.00
2023-04-18T01:04:02.761Z,92851.00
2023-04-18T01:05:02.744Z,92851.00
2023-04-18T01:06:02.811Z,92849.00
2023-04-18T01:07:02.873Z,92849.00
2023-04-18T01:08:02.932Z,92851.00
2023-04-18T01:09:03.087Z,92851.00
2023-04-18T01:10:03.103Z,92853.00
2023-04-18T01:11:03.184Z,92855.00
2023-04-18T01:12:03.247Z,92853.00
2023-04-18T01:13:03.321Z,92851.00
2023-04-18T01:14:04.414Z,92853.00
2023-04-18T01:15:03.493Z,92849.00
2023-04-18T01:16:03.622Z,92849.00
2023-04-18T01:17:03.628Z,92849.00
2023-04-18T01:18:03.714Z,92845.00
2023-04-18T01:19:03.769Z,92847.00
2023-04-18T01:20:03.854Z,92845.00
2023-04-18T01:21:03.918Z,92845.00
2023-04-18T01:22:04.006Z,92841.00
2023-04-18T01:23:04.080Z,92841.00
2023-04-18T01:24:04.184Z,92841.00
2023-04-18T01:25:04.245Z,92841.00
2023-04-18T01:26:04.398Z,92834.00
2023-04-18T01:27:05.399Z,92834.00
2023-04-18T01:28:04.528Z,92841.00
2023-04-18T01:29:04.589Z,92832.00
2023-04-18T01:30:04.707Z,92834.00
2023-04-18T01:31:04.802Z,92832.00
2023-04-18T01:32:04.852Z,92832.00
2023-04-18T01:33:04.935Z,92832.00
2023-04-18T01:34:05.016Z,92828.00
2023-04-18T01:35:05.415Z,92832.00
2023-04-18T01:36:05.184Z,92830.00
2023-04-18T01:37:05.258Z,92828.00
2023-04-18T01:38:05.348Z,92826.00
2023-04-18T01:39:05.466Z,92826.00
2023-04-18T01:40:05.517Z,92828.00
2023-04-18T01:41:05.587Z,92830.00
2023-04-18T01:42:05.675Z,92830.00
2023-04-18T01:43:05.753Z,92832.00
2023-04-18T01:44:05.840Z,92832.00
2023-04-18T01:45:05.929Z,92832.00
2023-04-18T01:46:06.018Z,92830.00
2023-04-18T01:47:06.090Z,92830.00
2023-04-18T01:48:06.171Z,92830.00
2023-04-18T01:49:06.247Z,92826.00
2023-04-18T01:50:06.334Z,92826.00
2023-04-18T01:51:06.420Z,92828.00
2023-04-18T01:52:06.491Z,92828.00
2023-04-18T01:53:06.577Z,92826.00
2023-04-18T01:54:06.666Z,92826.00
2023-04-18T01:55:06.932Z,92828.00
2023-04-18T01:56:06.808Z,92828.00
2023-04-18T01:57:06.929Z,92828.00
2023-04-18T01:58:06.968Z,92828.00
2023-04-18T01:59:07.045Z,92826.00
2023-04-18T02:00:07.151Z,92826.00
2023-04-18T02:01:07.257Z,92828.00
2023-04-18T02:02:07.422Z,92828.00
2023-04-18T02:03:07.556Z,92826.00
2023-04-18T02:04:07.441Z,92826.00
2023-04-18T02:05:07.507Z,92824.00
2023-04-18T02:06:07.606Z,92824.00
2023-04-18T02:07:08.412Z,92822.00
2023-04-18T02:08:07.725Z,92822.00
2023-04-18T02:09:07.792Z,92820.00
2023-04-18T02:10:07.890Z,92820.00
2023-04-18T02:11:07.954Z,92820.00
2023-04-18T02:12:08.045Z,92826.00
2023-04-18T02:13:08.101Z,92820.00
2023-04-18T02:14:08.179Z,92824.00
2023-04-18T02:15:08.433Z,92824.00
2023-04-18T02:16:08.436Z,92824.00
2023-04-18T02:17:08.408Z,92822.00
2023-04-18T02:18:08.526Z,92824.00
2023-04-18T02:19:08.586Z,92824.00
2023-04-18T02:20:08.639Z,92824.00
2023-04-18T02:21:08.696Z,92826.00
2023-04-18T02:22:08.787Z,92824.00
2023-04-18T02:23:08.906Z,92824.00
2023-04-18T02:24:08.931Z,92824.00
2023-04-18T02:25:08.998Z,92826.00
2023-04-18T02:26:09.079Z,92826.00
2023-04-18T02:27:09.155Z,92828.00
2023-04-18T02:28:09.235Z,92828.00
2023-04-18T02:29:09.306Z,92828.00
2023-04-18T02:30:09.391Z,92826.00
2023-04-18T02:31:09.933Z,92828.00
2023-04-18T02:32:09.631Z,92826.00
2023-04-18T02:33:09.602Z,92826.00
2023-04-18T02:34:09.674Z,92826.00
2023-04-18T02:35:09.751Z,92826.00
2023-04-18T02:36:09.801Z,92828.00
2023-04-18T02:37:09.879Z,92828.00
2023-04-18T02:38:09.951Z,92830.00
2023-04-18T02:39:10.025Z,92830.00
2023-04-18T02:40:10.159Z,92832.00
2023-04-18T02:41:10.174Z,92834.00
2023-04-18T02:42:10.235Z,92834.00
2023-04-18T02:43:10.315Z,92841.00
2023-04-18T02:44:10.382Z,92841.00
2023-04-18T02:45:10.456Z,92841.00
2023-04-18T02:46:10.557Z,92843.00
2023-04-18T02:47:10.604Z,92841.00
2023-04-18T02:48:10.698Z,92845.00
2023-04-18T02:49:10.818Z,92841.00
2023-04-18T02:50:10.827Z,92843.00
2023-04-18T02:51:10.884Z,92843.00
2023-04-18T02:52:10.957Z,92841.00
2023-04-18T02:53:11.029Z,92841.00
2023-04-18T02:54:11.161Z,92834.00
2023-04-18T02:55:11.174Z,92832.00
2023-04-18T02:56:11.246Z,92832.00
2023-04-18T02:57:11.316Z,92830.00
2023-04-18T02:58:11.397Z,92832.00
2023-04-18T02:59:12.436Z,92830.00
2023-04-18T03:00:11.975Z,92830.00
2023-04-18T03:01:11.667Z,92830.00
2023-04-18T03:02:11.644Z,92830.00
2023-04-18T03:03:11.748Z,92828.00
2023-04-18T03:04:12.164Z,92830.00
2023-04-18T03:05:11.945Z,92830.00
2023-04-18T03:06:11.906Z,92834.00
2023-04-18T03:07:12.065Z,92830.00
2023-04-18T03:08:12.048Z,92830.00
2023-04-18T03:09:12.104Z,92828.00
2023-04-18T03:10:12.189Z,92830.00
2023-04-18T03:11:12.252Z,92830.00
2023-04-18T03:12:12.329Z,92830.00
2023-04-18T03:13:12.388Z,92830.00
2023-04-18T03:14:12.654Z,92828.00
2023-04-18T03:15:12.522Z,92826.00
2023-04-18T03:16:12.666Z,92830.00
2023-04-18T03:17:12.638Z,92826.00
2023-04-18T03:18:12.746Z,92826.00
2023-04-18T03:19:12.797Z,92828.00
2023-04-18T03:20:12.872Z,92828.00
2023-04-18T03:21:12.901Z,92824.00
2023-04-18T03:22:12.972Z,92826.00
2023-04-18T03:23:13.050Z,92826.00
2023-04-18T03:24:13.489Z,92824.00
2023-04-18T03:25:13.171Z,92826.00
2023-04-18T03:26:13.247Z,92826.00
2023-04-18T03:27:13.290Z,92826.00
2023-04-18T03:28:13.356Z,92826.00
2023-04-18T03:29:13.457Z,92826.00
2023-04-18T03:30:13.483Z,92826.00
2023-04-18T03:31:13.590Z,92830.00
2023-04-18T03:32:13.612Z,92830.00
2023-04-18T03:33:13.685Z,92828.00
2023-04-18T03:34:13.935Z,92828.00
2023-04-18T03:35:13.841Z,92832.00
2023-04-18T03:36:14.443Z,92832.00
2023-04-18T03:37:13.963Z,92830.00
2023-04-18T03:38:14.003Z,92832.00
2023-04-18T03:39:14.077Z,92830.00
2023-04-18T03:40:14.151Z,92830.00
2023-04-18T03:41:14.400Z,92830.00
2023-04-18T03:42:14.277Z,92828.00
2023-04-18T03:43:14.344Z,92828.00
2023-04-18T03:44:14.742Z,92826.00
2023-04-18T03:45:14.478Z,92826.00
2023-04-18T03:46:14.597Z,92826.00
2023-04-18T03:47:14.637Z,92828.00
2023-04-18T03:48:14.713Z,92828.00
2023-04-18T03:49:14.776Z,92830.00
2023-04-18T03:50:14.843Z,92830.00
2023-04-18T03:51:14.976Z,92832.00
2023-04-18T03:52:14.969Z,92830.00
2023-04-18T03:53:15.059Z,92832.00
2023-04-18T03:54:15.317Z,92832.00
2023-04-18T03:55:15.178Z,92830.00
2023-04-18T03:56:15.257Z,92830.00
2023-04-18T03:57:15.323Z,92832.00
2023-04-18T03:58:15.480Z,92832.00
2023-04-18T03:59:15.601Z,92832.00
2023-04-18T04:00:15.521Z,92834.00
2023-04-18T04:01:15.657Z,92834.00
2023-04-18T04:02:15.711Z,92834.00
2023-04-18T04:03:15.769Z,92834.00
2023-04-18T04:04:16.739Z,92834.00
2023-04-18T04:05:15.931Z,92834.00
2023-04-18T04:06:15.930Z,92834.00
2023-04-18T04:07:16.004Z,92834.00
2023-04-18T04:08:16.103Z,92834.00
2023-04-18T04:09:16.123Z,92834.00
2023-04-18T04:10:16.193Z,92832.00
2023-04-18T04:11:16.260Z,92832.00
2023-04-18T04:12:16.318Z,92834.00
2023-04-18T04:13:16.393Z,92834.00
2023-04-18T04:14:16.513Z,92841.00
2023-04-18T04:15:16.539Z,92834.00
2023-04-18T04:16:16.587Z,92841.00
2023-04-18T04:17:16.651Z,92834.00
2023-04-18T04:18:16.708Z,92843.00
2023-04-18T04:19:16.769Z,92843.00
2023-04-18T04:20:16.840Z,92847.00
2023-04-18T04:21:17.597Z,92847.00
2023-04-18T04:22:16.956Z,92847.00
2023-04-18T04:23:17.083Z,92849.00
2023-04-18T04:24:17.076Z,92847.00
2023-04-18T04:25:17.136Z,92847.00
2023-04-18T04:26:17.471Z,92849.00
2023-04-18T04:27:17.260Z,92849.00
2023-04-18T04:28:17.318Z,92849.00
2023-04-18T04:29:17.374Z,92847.00
2023-04-18T04:30:17.441Z,92849.00
2023-04-18T04:31:17.532Z,92847.00
2023-04-18T04:32:17.565Z,92849.00
2023-04-18T04:33:17.644Z,92847.00
2023-04-18T04:34:17.693Z,92847.00
2023-04-18T04:35:17.758Z,92847.00
2023-04-18T04:36:19.041Z,92847.00
2023-04-18T04:37:17.862Z,92849.00
2023-04-18T04:38:17.926Z,92849.00
2023-04-18T04:39:17.989Z,92849.00
2023-04-18T04:40:18.059Z,92849.00
2023-04-18T04:41:18.133Z,92849.00
2023-04-18T04:42:18.181Z,92849.00
2023-04-18T04:43:18.238Z,92849.00
2023-04-18T04:44:18.362Z,92849.00
2023-04-18T04:45:18.385Z,92849.00
2023-04-18T04:46:18.534Z,92849.00
2023-04-18T04:47:18.498Z,92849.00
2023-04-18T04:48:18.566Z,92847.00
2023-04-18T04:49:18.632Z,92849.00
2023-04-18T04:50:18.715Z,92851.00
2023-04-18T04:51:18.766Z,92853.00
2023-04-18T04:52:18.829Z,92853.00
2023-04-18T04:53:18.889Z,92857.00
2023-04-18T04:54:18.952Z,92855.00
2023-04-18T04:55:19.084Z,92855.00
2023-04-18T04:56:19.082Z,92857.00
2023-04-18T04:57:19.154Z,92855.00
2023-04-18T04:58:19.235Z,92857.00
2023-04-18T04:59:19.284Z,92859.00
2023-04-18T05:00:19.344Z,92859.00
2023-04-18T05:01:19.483Z,92861.00
2023-04-18T05:02:19.537Z,92861.00
2023-04-18T05:03:19.695Z,92863.00
2023-04-18T05:04:20.165Z,92865.00
2023-04-18T05:05:19.657Z,92867.00
2023-04-18T05:06:19.750Z,92867.00
2023-04-18T05:07:19.789Z,92869.00
2023-04-18T05:08:19.850Z,92869.00
2023-04-18T05:09:19.920Z,92869.00
2023-04-18T05:10:19.967Z,92871.00
2023-04-18T05:11:20.049Z,92874.00
2023-04-18T05:12:20.098Z,92871.00
2023-04-18T05:13:20.174Z,92872.00
2023-04-18T05:14:20.226Z,92872.00
2023-04-18T05:15:20.284Z,92876.00
2023-04-18T05:16:20.356Z,92874.00
2023-04-18T05:17:20.394Z,92876.00
2023-04-18T05:18:20.457Z,92880.00
2023-04-18T05:19:20.519Z,92876.00
2023-04-18T05:20:20.577Z,92878.00
2023-04-18T05:21:20.631Z,92880.00
2023-04-18T05:22:20.680Z,92876.00
2023-04-18T05:23:20.766Z,92880.00
2023-04-18T05:24:20.814Z,92878.00
2023-04-18T05:25:20.867Z,92882.00
2023-04-18T05:26:20.944Z,92880.00
2023-04-18T05:27:20.971Z,92882.00
2023-04-18T05:28:21.000Z,92882.00
2023-04-18T05:29:21.033Z,92886.00
2023-04-18T05:30:21.103Z,92888.00
2023-04-18T05:31:22.031Z,92882.00
2023-04-18T05:32:21.171Z,92888.00
2023-04-18T05:33:21.133Z,92888.00
2023-04-18T05:34:21.150Z,92886.00
2023-04-18T05:35:21.188Z,92888.00
2023-04-18T05:36:21.190Z,92884.00
2023-04-18T05:37:21.206Z,92884.00
2023-04-18T05:38:21.220Z,92888.00
2023-04-18T05:39:21.220Z,92890.00
2023-04-18T05:40:21.249Z,92886.00
2023-04-18T05:41:21.248Z,92888.00
2023-04-18T05:42:21.273Z,92888.00
2023-04-18T05:43:21.274Z,92884.00
2023-04-18T05:44:21.567Z,92886.00
2023-04-18T05:45:21.307Z,92886.00
2023-04-18T05:46:21.360Z,92886.00
2023-04-18T05:47:21.370Z,92888.00
2023-04-18T05:48:21.364Z,92888.00
2023-04-18T05:49:21.368Z,92888.00
2023-04-18T05:50:21.499Z,92886.00
2023-04-18T05:51:21.476Z,92888.00
2023-04-18T05:52:21.521Z,92884.00
2023-04-18T05:53:22.498Z,92884.00
2023-04-18T05:54:21.653Z,92886.00
2023-04-18T05:55:21.772Z,92886.00
2023-04-18T05:56:21.778Z,92888.00
2023-04-18T05:57:21.847Z,92890.00
2023-04-18T05:58:21.933Z,92890.00
2023-04-18T05:59:21.964Z,92890.00
2023-04-18T06:00:22.048Z,92892.00
2023-04-18T06:01:22.091Z,92892.00
2023-04-18T06:02:22.273Z,92896.00
2023-04-18T06:03:22.435Z,92894.00
2023-04-18T06:04:22.395Z,92896.00
2023-04-18T06:05:22.817Z,92898.00
2023-04-18T06:06:22.403Z,92896.00
2023-04-18T06:07:22.523Z,92900.00
2023-04-18T06:08:22.524Z,92900.00
2023-04-18T06:09:22.584Z,92898.00
2023-04-18T06:10:22.649Z,92898.00
2023-04-18T06:11:22.728Z,92900.00
2023-04-18T06:12:22.750Z,92900.00
2023-04-18T06:13:22.778Z,92902.00
2023-04-18T06:14:23.509Z,92906.00
2023-04-18T06:15:22.868Z,92904.00
2023-04-18T06:16:22.924Z,92906.00
2023-04-18T06:17:23.010Z,92906.00
2023-04-18T06:18:22.991Z,92910.00
2023-04-18T06:19:23.013Z,92906.00
2023-04-18T06:20:23.049Z,92910.00
2023-04-18T06:21:24.008Z,92910.00
2023-04-18T06:22:23.120Z,92910.00
2023-04-18T06:23:23.162Z,92912.00
2023-04-18T06:24:23.192Z,92916.00
2023-04-18T06:25:23.231Z,92916.00
2023-04-18T06:26:23.275Z,92916.00
2023-04-18T06:27:31.044Z,92916.00
2023-04-18T06:28:24.314Z,92912.00
2023-04-18T06:29:23.316Z,92914.00
2023-04-18T06:30:23.353Z,92914.00
2023-04-18T06:31:23.353Z,92914.00
2023-04-18T06:32:25.498Z,92916.00
2023-04-18T06:33:23.941Z,92920.00
2023-04-18T06:34:23.298Z,92918.00
2023-04-18T06:35:24.138Z,92920.00
2023-04-18T06:36:23.507Z,92920.00
2023-04-18T06:37:23.589Z,92918.00
2023-04-18T06:38:24.017Z,92920.00
2023-04-18T06:39:23.722Z,92918.00
2023-04-18T06:40:23.728Z,92918.00
2023-04-18T06:41:23.789Z,92914.00
2023-04-18T06:42:23.866Z,92912.00
2023-04-18T06:43:23.909Z,92912.00
2023-04-18T06:44:23.973Z,92910.00
2023-04-18T06:45:24.043Z,92910.00
2023-04-18T06:46:24.153Z,92910.00
2023-04-18T06:47:25.162Z,92912.00
2023-04-18T06:48:24.093Z,92912.00
2023-04-18T06:49:26.415Z,92910.00
2023-04-18T06:50:24.330Z,92912.00
2023-04-18T06:51:24.385Z,92912.00
2023-04-18T06:52:24.438Z,92908.00
2023-04-18T06:53:24.512Z,92908.00
2023-04-18T06:54:24.596Z,92910.00
2023-04-18T06:55:24.742Z,92906.00
2023-04-18T06:56:24.705Z,92906.00
2023-04-18T06:57:24.769Z,92906.00
2023-04-18T06:58:24.836Z,92906.00
2023-04-18T06:59:24.911Z,92904.00
2023-04-18T07:00:24.974Z,92902.00
2023-04-18T07:01:25.071Z,92904.00
2023-04-18T07:02:25.179Z,92902.00
2023-04-18T07:03:25.261Z,92902.00
2023-04-18T07:04:25.403Z,92900.00
2023-04-18T07:05:25.269Z,92900.00
2023-04-18T07:06:25.319Z,92898.00
2023-04-18T07:07:25.362Z,92898.00
2023-04-18T07:08:25.443Z,92896.00
2023-04-18T07:09:25.487Z,92896.00
2023-04-18T07:10:26.628Z,92896.00
2023-04-18T07:11:25.603Z,92894.00
2023-04-18T07:12:25.623Z,92894.00
2023-04-18T07:13:25.732Z,92892.00
2023-04-18T07:14:25.730Z,92894.00
2023-04-18T07:15:25.777Z,92894.00
2023-04-18T07:16:25.884Z,92894.00
2023-04-18T07:17:25.959Z,92892.00
2023-04-18T07:18:36.719Z,92888.00
2023-04-18T07:19:27.054Z,92888.00
2023-04-18T07:20:26.060Z,92886.00
2023-04-18T07:21:26.448Z,92886.00
2023-04-18T07:22:25.958Z,92882.00
2023-04-18T07:23:25.963Z,92882.00
2023-04-18T07:24:25.963Z,92880.00
2023-04-18T07:25:25.963Z,92882.00
2023-04-18T07:26:26.602Z,92882.00
2023-04-18T07:27:25.977Z,92878.00
2023-04-18T07:28:26.948Z,92878.00
2023-04-18T07:29:27.455Z,92876.00
2023-04-18T07:30:26.097Z,92876.00
2023-04-18T07:31:26.149Z,92878.00
2023-04-18T07:32:26.235Z,92876.00
2023-04-18T07:33:26.273Z,92876.00
2023-04-18T07:34:26.308Z,92876.00
2023-04-18T07:35:26.250Z,92874.00
2023-04-18T07:36:26.302Z,92874.00
2023-04-18T07:37:26.202Z,92874.00
2023-04-18T07:38:26.208Z,92874.00
2023-04-18T07:39:26.194Z,92872.00
2023-04-18T07:40:26.229Z,92874.00
2023-04-18T07:41:26.245Z,92872.00
2023-04-18T07:42:26.271Z,92876.00
2023-04-18T07:43:26.168Z,92874.00
2023-04-18T07:44:26.161Z,92878.00
2023-04-18T07:45:26.163Z,92878.00
2023-04-18T07:46:26.210Z,92878.00
2023-04-18T07:47:27.518Z,92876.00
2023-04-18T07:48:26.174Z,92878.00
2023-04-18T07:49:26.133Z,92878.00
2023-04-18T07:50:26.141Z,92878.00
2023-04-18T07:51:26.119Z,92878.00
2023-04-18T07:52:26.122Z,92874.00
2023-04-18T07:53:26.108Z,92878.00
2023-04-18T07:54:26.101Z,92876.00
2023-04-18T07:55:26.155Z,92878.00
2023-04-18T07:56:26.097Z,92876.00
2023-04-18T07:57:26.108Z,92878.00
2023-04-18T07:58:26.217Z,92882.00
2023-04-18T07:59:26.091Z,92878.00
2023-04-18T08:00:26.296Z,92876.00
2023-04-18T08:01:26.070Z,92878.00
2023-04-18T08:02:26.246Z,92878.00
2023-04-18T08:03:26.229Z,92880.00
2023-04-18T08:05:26.136Z,92880.00
2023-04-18T08:06:26.973Z,92884.00
2023-04-18T08:07:26.001Z,92880.00
2023-04-18T08:08:26.078Z,92880.00
2023-04-18T08:09:26.001Z,92882.00
2023-04-18T08:10:25.981Z,92878.00
2023-04-18T08:11:25.986Z,92880.00
2023-04-18T08:12:26.032Z,92882.00
2023-04-18T08:13:25.951Z,92882.00
2023-04-18T08:14:25.964Z,92884.00
2023-04-18T08:15:25.901Z,92906.00
2023-04-18T08:16:25.896Z,92886.00
2023-04-18T08:17:25.899Z,92888.00
2023-04-18T08:18:25.857Z,92886.00
2023-04-18T08:19:25.849Z,92884.00
2023-04-18T08:20:25.882Z,92884.00
2023-04-18T08:21:25.827Z,92882.00
2023-04-18T08:22:25.805Z,92878.00
2023-04-18T08:23:25.801Z,92880.00
2023-04-18T08:24:25.796Z,92884.00
2023-04-18T08:25:25.802Z,92882.00
2023-04-18T08:26:25.882Z,92886.00
2023-04-18T08:27:25.769Z,92880.00
2023-04-18T08:28:26.585Z,92880.00
2023-04-18T08:29:25.739Z,92882.00
2023-04-18T08:30:26.691Z,92880.00
2023-04-18T08:31:25.770Z,92878.00
2023-04-18T08:32:25.781Z,92880.00
2023-04-18T08:33:25.694Z,92876.00
2023-04-18T08:34:25.684Z,92878.00
2023-04-18T08:35:25.673Z,92878.00
2023-04-18T08:36:25.660Z,92876.00
2023-04-18T08:37:25.683Z,92876.00
2023-04-18T08:38:25.641Z,92876.00
2023-04-18T08:39:26.057Z,92876.00
2023-04-18T08:40:25.654Z,92878.00
2023-04-18T08:41:25.604Z,92878.00
2023-04-18T08:42:25.596Z,92878.00
2023-04-18T08:43:25.575Z,92874.00
2023-04-18T08:44:25.558Z,92874.00
2023-04-18T08:45:25.555Z,92874.00
2023-04-18T08:46:25.577Z,92874.00
2023-04-18T08:47:25.551Z,92876.00
2023-04-18T08:48:25.499Z,92878.00
2023-04-18T08:49:25.562Z,92876.00
2023-04-18T08:50:25.501Z,92878.00
2023-04-18T08:51:25.457Z,92878.00
2023-04-18T08:52:25.429Z,92878.00
2023-04-18T08:53:25.414Z,92876.00
2023-04-18T08:54:27.140Z,92880.00
2023-04-18T08:55:25.389Z,92878.00
2023-04-18T08:56:25.355Z,92878.00
2023-04-18T08:57:25.339Z,92878.00
2023-04-18T08:58:25.322Z,92878.00
2023-04-18T08:59:25.315Z,92882.00
2023-04-18T09:00:25.423Z,92880.00
2023-04-18T09:01:25.376Z,92880.00
2023-04-18T09:02:25.564Z,92882.00
2023-04-18T09:03:25.361Z,92884.00
2023-04-18T09:04:25.378Z,92884.00
2023-04-18T09:05:25.309Z,92886.00
2023-04-18T09:06:26.081Z,92886.00
2023-04-18T09:07:25.326Z,92884.00
2023-04-18T09:08:25.277Z,92880.00
2023-04-18T09:09:25.276Z,92880.00
2023-04-18T09:10:25.315Z,92882.00
2023-04-18T09:11:25.268Z,92880.00
2023-04-18T09:12:25.269Z,92878.00
2023-04-18T09:13:25.261Z,92876.00
2023-04-18T09:14:25.288Z,92878.00
2023-04-18T09:15:25.315Z,92876.00
2023-04-18T09:16:25.429Z,92874.00
2023-04-18T09:17:25.395Z,92874.00
2023-04-18T09:18:25.647Z,92872.00
2023-04-18T09:19:25.401Z,92869.00
2023-04-18T09:20:25.460Z,92865.00
2023-04-18T09:21:25.540Z,92865.00
2023-04-18T09:22:25.589Z,92865.00
2023-04-18T09:23:25.628Z,92867.00
2023-04-18T09:24:25.654Z,92869.00
2023-04-18T09:25:26.491Z,92865.00
2023-04-18T09:26:25.752Z,92867.00
2023-04-18T09:27:25.804Z,92865.00
2023-04-18T09:28:26.094Z,92865.00
2023-04-18T09:29:25.926Z,92865.00
2023-04-18T09:30:25.983Z,92863.00
2023-04-18T09:31:26.121Z,92865.00
2023-04-18T09:32:26.148Z,92863.00
2023-04-18T09:33:26.162Z,92859.00
2023-04-18T09:34:26.255Z,92861.00
2023-04-18T09:35:26.268Z,92863.00
2023-04-18T09:36:26.348Z,92863.00
2023-04-18T09:37:26.368Z,92865.00
2023-04-18T09:38:26.603Z,92865.00
2023-04-18T09:39:26.470Z,92865.00
2023-04-18T09:40:26.515Z,92865.00
2023-04-18T09:41:26.536Z,92863.00
2023-04-18T09:42:28.795Z,92861.00
2023-04-18T09:43:26.630Z,92863.00
2023-04-18T09:44:26.667Z,92861.00
2023-04-18T09:45:26.710Z,92859.00
2023-04-18T09:46:26.749Z,92857.00
2023-04-18T09:47:26.801Z,92859.00
2023-04-18T09:48:26.790Z,92859.00
2023-04-18T09:49:26.839Z,92861.00
2023-04-18T09:50:26.872Z,92861.00
2023-04-18T09:51:26.912Z,92859.00
2023-04-18T09:52:27.593Z,92861.00
2023-04-18T09:53:26.978Z,92859.00
2023-04-18T09:54:27.000Z,92859.00
2023-04-18T09:55:27.031Z,92859.00
2023-04-18T09:56:27.049Z,92859.00
2023-04-18T09:57:28.093Z,92857.00
2023-04-18T09:58:27.123Z,92855.00
2023-04-18T09:59:27.153Z,92853.00
2023-04-18T10:00:27.184Z,92853.00
2023-04-18T10:01:28.192Z,92851.00
2023-04-18T10:02:27.241Z,92853.00
2023-04-18T10:03:27.219Z,92849.00
2023-04-18T10:04:27.221Z,92849.00
2023-04-18T10:05:27.214Z,92847.00
2023-04-18T10:06:27.099Z,92847.00
2023-04-18T10:07:27.096Z,92851.00
2023-04-18T10:08:27.085Z,92849.00
2023-04-18T10:09:27.067Z,92849.00
2023-04-18T10:10:27.086Z,92847.00
2023-04-18T10:11:27.048Z,92847.00
2023-04-18T10:12:27.045Z,92847.00
2023-04-18T10:13:27.012Z,92847.00
2023-04-18T10:14:28.448Z,92845.00
2023-04-18T10:15:27.166Z,92845.00
2023-04-18T10:16:27.026Z,92841.00
2023-04-18T10:17:28.749Z,92841.00
2023-04-18T10:18:27.040Z,92832.00
2023-04-18T10:19:28.009Z,92834.00
2023-04-18T10:20:26.960Z,92832.00
2023-04-18T10:21:27.594Z,92826.00
2023-04-18T10:22:27.509Z,92828.00
2023-04-18T10:23:28.071Z,92828.00
2023-04-18T10:24:26.918Z,92828.00
2023-04-18T10:25:26.909Z,92820.00
2023-04-18T10:26:26.900Z,92822.00
2023-04-18T10:27:26.883Z,92822.00
2023-04-18T10:28:26.864Z,92820.00
2023-04-18T10:29:26.850Z,92820.00
2023-04-18T10:30:26.849Z,92820.00
2023-04-18T10:31:27.026Z,92818.00
2023-04-18T10:32:26.931Z,92820.00
2023-04-18T10:33:31.129Z,92818.00
2023-04-18T10:34:28.003Z,92818.00
2023-04-18T10:35:26.979Z,92816.00
2023-04-18T10:36:26.885Z,92816.00
2023-04-18T10:37:26.870Z,92816.00
2023-04-18T10:38:26.856Z,92814.00
2023-04-18T10:39:26.892Z,92814.00
2023-04-18T10:40:26.811Z,92812.00
2023-04-18T10:41:26.825Z,92816.00
2023-04-18T10:42:26.770Z,92814.00
2023-04-18T10:43:26.828Z,92812.00
2023-04-18T10:44:26.796Z,92812.00
2023-04-18T10:45:26.821Z,92812.00
2023-04-18T10:46:31.624Z,92810.00
2023-04-18T10:47:27.913Z,92806.00
2023-04-18T10:48:26.814Z,92808.00
2023-04-18T10:49:28.416Z,92806.00
2023-04-18T10:50:26.788Z,92806.00
2023-04-18T10:51:26.775Z,92804.00
2023-04-18T10:52:26.764Z,92804.00
2023-04-18T10:53:26.763Z,92804.00
2023-04-18T10:54:26.766Z,92804.00
2023-04-18T10:55:27.110Z,92800.00
2023-04-18T10:56:27.103Z,92798.00
2023-04-18T10:57:26.695Z,92798.00
2023-04-18T10:58:26.684Z,92796.00
2023-04-18T10:59:26.692Z,92796.00
2023-04-18T11:00:26.681Z,92796.00
2023-04-18T11:01:27.481Z,92792.00
2023-04-18T11:02:26.895Z,92792.00
2023-04-18T11:03:26.925Z,92796.00
2023-04-18T11:04:26.925Z,92796.00
2023-04-18T11:05:26.856Z,92796.00
2023-04-18T11:06:26.856Z,92792.00
2023-04-18T11:07:28.405Z,92794.00
2023-04-18T11:08:26.836Z,92792.00
2023-04-18T11:09:26.828Z,92790.00
2023-04-18T11:10:26.942Z,92788.00
2023-04-18T11:11:26.783Z,92790.00
2023-04-18T11:12:26.760Z,92785.00
2023-04-18T11:13:26.732Z,92785.00
2023-04-18T11:14:26.717Z,92787.00
2023-04-18T11:15:28.015Z,92785.00
2023-04-18T11:16:26.761Z,92785.00
2023-04-18T11:17:27.634Z,92785.00
2023-04-18T11:18:26.784Z,92781.00
2023-04-18T11:19:26.800Z,92781.00
2023-04-18T11:20:26.921Z,92779.00
2023-04-18T11:21:28.074Z,92781.00
2023-04-18T11:22:26.899Z,92775.00
2023-04-18T11:23:26.997Z,92777.00
2023-04-18T11:24:26.964Z,92773.00
2023-04-18T11:25:27.048Z,92773.00
2023-04-18T11:26:27.166Z,92775.00
2023-04-18T11:27:27.069Z,92775.00
2023-04-18T11:28:27.104Z,92775.00
2023-04-18T11:29:27.616Z,92777.00
2023-04-18T11:30:27.198Z,92775.00
2023-04-18T11:31:27.244Z,92777.00
2023-04-18T11:32:27.811Z,92771.00
2023-04-18T11:33:27.311Z,92777.00
2023-04-18T11:34:27.357Z,92773.00
2023-04-18T11:35:27.391Z,92773.00
2023-04-18T11:36:27.436Z,92773.00
2023-04-18T11:37:27.493Z,92773.00
2023-04-18T11:38:27.516Z,92769.00
2023-04-18T11:39:27.576Z,92773.00
2023-04-18T11:40:27.617Z,92771.00
2023-04-18T11:41:27.666Z,92771.00
2023-04-18T11:42:27.731Z,92769.00
2023-04-18T11:43:27.745Z,92769.00
2023-04-18T11:44:27.794Z,92767.00
2023-04-18T11:45:27.833Z,92767.00
2023-04-18T11:46:27.937Z,92763.00